CPX430 Details

Departure: Sacramento International Airport (KSMF)
Arrival: Seattle-Tacoma International Airport (KSEA)
Route: RBL J126 OED J1 SEA


Current Weather Information
KSMF 260953Z 21003KT 10SM SCT015 BKN020 OVC030 11/11 A3005 RMK AO2 RAE18 SLP176 P0002 T01110111
KSEA 260953Z 19009KT 10SM -RA FEW010 BKN030 OVC038 07/04 A3004 RMK AO2 SLP178 P0002 T00670044